Aérodrome :
LOGIN :

S'inscrire | Disclaimer

   EN    FR    IT 

 










Légende :    VFR   VFR Marginal   IFR   IFR Intensif   IFR Très Intensif
Visi : 
Plafond : 
>= 8 km
>= 3000ft
5 à 8 km
1000 à 3000 ft
1500m à 5 km
500 à 1000 ft
800 à 1500m
200 à 500 ft
< 800m
< 200 ft
Symboles :   Orages  Brouillard  Fortes neiges  Fortes précipitations  Vent > 20 kt
SIGMETs :   Divers  Orages  Givrage  Turbulence  Onde Orograph.  Cendres Volcan.







- Altitude de l'aérodrome : 1830 ft


EBLB - Butgenbach Elsenborn

DERNIER METAR :
  • 200325Z AUTO VRB01KT 2700 BR OVC064/// M05/M05 Q1014 YLO

METARs EXPIRÉS :
  • 200303Z AUTO VRB01KT 3400 BR OVC065/// M04/M05 Q1014 YLO
  • 200255Z AUTO VRB01KT 4100 BR OVC065/// M04/M05 Q1014 GRN
  • 200225Z AUTO VRB02KT 3000 BR BKN065/// M04/M05 Q1014 YLO
  • 200215Z AUTO VRB02KT 3800 BR BKN065/// M04/M05 Q1014 GRN
  • 200155Z AUTO VRB01KT 3400 BR OVC068/// M04/M05 Q1014 YLO
  • 200137Z AUTO VRB01KT 3500 BR OVC068/// M04/M05 Q1014 YLO
  • 200125Z AUTO VRB01KT 3600 BR BKN068/// M04/M05 Q1014 YLO
  • 200055Z AUTO VRB02KT 4300 BR OVC068/// M04/M04 Q1014 GRN

Prévision TAF périmée.
Pas de NOTAMs connus pour ce terrain.



MET'MAP, la Météo Aéronautique d'un coup d'oeil ! - Copyright ORBIFLY Décembre 2007 - Disclaimer

ORBIFLY MET'MAP TEAM :

Programmation & Développement : Alexandra Zaïnal
Conception & Développement : Baudouin d'Aumeries
Co-Programmation & Développement : Marc-Olivier Méhu
Soutien technique & logistique : Manuel Goepfert

Contact : metmap@orbifly.com




SOURCES & CREDITS :

   NOAA